sensor_id;sensor_type;location;lat;lon;timestamp;temperature;humidity
12039;DHT22;6080;48.818;9.526;2023-06-14T03:02:04;10.80;99.90
12039;DHT22;6080;48.818;9.526;2023-06-14T03:04:30;10.80;99.90
12039;DHT22;6080;48.818;9.526;2023-06-14T03:07:03;10.80;99.90
12039;DHT22;6080;48.818;9.526;2023-06-14T03:09:37;10.70;99.90
12039;DHT22;6080;48.818;9.526;2023-06-14T03:12:04;10.70;99.90
12039;DHT22;6080;48.818;9.526;2023-06-14T03:14:33;10.70;99.90
12039;DHT22;6080;48.818;9.526;2023-06-14T03:16:58;10.70;99.90
12039;DHT22;6080;48.818;9.526;2023-06-14T03:19:26;10.70;99.90
12039;DHT22;6080;48.818;9.526;2023-06-14T03:21:52;10.70;99.90
12039;DHT22;6080;48.818;9.526;2023-06-14T03:24:19;10.70;99.90
12039;DHT22;6080;48.818;9.526;2023-06-14T03:26:45;10.70;99.90
12039;DHT22;6080;48.818;9.526;2023-06-14T03:29:11;10.70;99.90
12039;DHT22;6080;48.818;9.526;2023-06-14T03:31:56;10.70;99.90
12039;DHT22;6080;48.818;9.526;2023-06-14T03:34:22;10.70;99.90
12039;DHT22;6080;48.818;9.526;2023-06-14T03:36:48;10.70;99.90
12039;DHT22;6080;48.818;9.526;2023-06-14T03:39:15;10.80;99.90
12039;DHT22;6080;48.818;9.526;2023-06-14T03:41:40;10.70;99.90
12039;DHT22;6080;48.818;9.526;2023-06-14T03:44:06;10.80;99.90
12039;DHT22;6080;48.818;9.526;2023-06-14T03:46:32;10.80;99.90
12039;DHT22;6080;48.818;9.526;2023-06-14T03:48:58;10.70;99.90
12039;DHT22;6080;48.818;9.526;2023-06-14T03:51:23;10.80;99.90
12039;DHT22;6080;48.818;9.526;2023-06-14T03:53:51;10.80;99.90
12039;DHT22;6080;48.818;9.526;2023-06-14T03:56:16;10.90;99.90
12039;DHT22;6080;48.818;9.526;2023-06-14T03:58:42;10.90;99.90
12039;DHT22;6080;48.818;9.526;2023-06-14T04:01:08;10.90;99.90
12039;DHT22;6080;48.818;9.526;2023-06-14T04:03:33;11.00;99.90
12039;DHT22;6080;48.818;9.526;2023-06-14T04:06:00;11.00;99.90
12039;DHT22;6080;48.818;9.526;2023-06-14T04:08:26;11.00;99.90
12039;DHT22;6080;48.818;9.526;2023-06-14T04:10:52;11.00;99.90
12039;DHT22;6080;48.818;9.526;2023-06-14T04:13:17;11.10;99.90
12039;DHT22;6080;48.818;9.526;2023-06-14T04:15:43;11.20;99.90
12039;DHT22;6080;48.818;9.526;2023-06-14T04:18:11;11.30;99.90
12039;DHT22;6080;48.818;9.526;2023-06-14T04:20:37;11.40;99.90
12039;DHT22;6080;48.818;9.526;2023-06-14T04:23:15;11.50;99.90
12039;DHT22;6080;48.818;9.526;2023-06-14T04:25:41;11.60;99.90
12039;DHT22;6080;48.818;9.526;2023-06-14T04:28:11;11.70;99.90
12039;DHT22;6080;48.818;9.526;2023-06-14T04:30:37;11.70;99.90
12039;DHT22;6080;48.818;9.526;2023-06-14T04:33:04;11.70;99.90
12039;DHT22;6080;48.818;9.526;2023-06-14T04:35:31;11.70;99.90
12039;DHT22;6080;48.818;9.526;2023-06-14T04:38:04;11.80;99.90
12039;DHT22;6080;48.818;9.526;2023-06-14T04:40:32;11.90;99.90
12039;DHT22;6080;48.818;9.526;2023-06-14T04:42:59;12.00;99.90
12039;DHT22;6080;48.818;9.526;2023-06-14T04:45:25;12.10;99.90
12039;DHT22;6080;48.818;9.526;2023-06-14T04:47:59;12.20;99.90
12039;DHT22;6080;48.818;9.526;2023-06-14T04:50:25;12.30;99.90
12039;DHT22;6080;48.818;9.526;2023-06-14T04:52:52;12.50;99.90
12039;DHT22;6080;48.818;9.526;2023-06-14T04:55:18;12.70;99.90
12039;DHT22;6080;48.818;9.526;2023-06-14T04:57:46;12.90;99.90
12039;DHT22;6080;48.818;9.526;2023-06-14T05:00:13;13.10;99.90
12039;DHT22;6080;48.818;9.526;2023-06-14T05:02:39;13.40;99.90
12039;DHT22;6080;48.818;9.526;2023-06-14T05:05:06;13.70;99.90
12039;DHT22;6080;48.818;9.526;2023-06-14T05:07:33;14.00;99.90
12039;DHT22;6080;48.818;9.526;2023-06-14T05:09:59;14.50;99.90
12039;DHT22;6080;48.818;9.526;2023-06-14T05:12:25;15.10;99.90
12039;DHT22;6080;48.818;9.526;2023-06-14T05:14:51;15.70;99.90
12039;DHT22;6080;48.818;9.526;2023-06-14T05:17:17;16.40;99.90
12039;DHT22;6080;48.818;9.526;2023-06-14T05:19:43;16.90;99.90
12039;DHT22;6080;48.818;9.526;2023-06-14T05:22:09;17.50;99.90
12039;DHT22;6080;48.818;9.526;2023-06-14T05:24:35;17.90;99.90
12039;DHT22;6080;48.818;9.526;2023-06-14T05:27:00;18.20;99.90
12039;DHT22;6080;48.818;9.526;2023-06-14T05:29:26;18.80;99.90
12039;DHT22;6080;48.818;9.526;2023-06-14T05:31:53;19.20;99.80
12039;DHT22;6080;48.818;9.526;2023-06-14T05:34:18;19.60;98.60
12039;DHT22;6080;48.818;9.526;2023-06-14T05:36:44;19.80;97.30
12039;DHT22;6080;48.818;9.526;2023-06-14T05:39:10;20.10;95.70
12039;DHT22;6080;48.818;9.526;2023-06-14T05:41:36;20.20;95.30
12039;DHT22;6080;48.818;9.526;2023-06-14T05:44:02;20.50;94.50
12039;DHT22;6080;48.818;9.526;2023-06-14T05:46:27;20.80;93.80
12039;DHT22;6080;48.818;9.526;2023-06-14T05:48:54;21.10;92.40
12039;DHT22;6080;48.818;9.526;2023-06-14T05:51:21;21.10;91.80
12039;DHT22;6080;48.818;9.526;2023-06-14T05:53:48;21.50;91.20
12039;DHT22;6080;48.818;9.526;2023-06-14T05:56:15;21.80;90.20
12039;DHT22;6080;48.818;9.526;2023-06-14T05:58:41;22.30;88.70
12039;DHT22;6080;48.818;9.526;2023-06-14T06:01:07;22.20;87.40
12039;DHT22;6080;48.818;9.526;2023-06-14T06:03:33;22.50;86.20
12039;DHT22;6080;48.818;9.526;2023-06-14T06:05:59;22.80;84.70
12039;DHT22;6080;48.818;9.526;2023-06-14T06:08:25;23.10;83.40
12039;DHT22;6080;48.818;9.526;2023-06-14T06:10:51;23.20;82.00
12039;DHT22;6080;48.818;9.526;2023-06-14T06:13:17;23.60;80.40
12039;DHT22;6080;48.818;9.526;2023-06-14T06:15:43;23.70;77.90
12039;DHT22;6080;48.818;9.526;2023-06-14T06:18:09;23.60;77.40
12039;DHT22;6080;48.818;9.526;2023-06-14T06:20:34;23.90;74.70
12039;DHT22;6080;48.818;9.526;2023-06-14T06:23:01;24.00;74.60
12039;DHT22;6080;48.818;9.526;2023-06-14T06:25:27;24.00;73.00
12039;DHT22;6080;48.818;9.526;2023-06-14T06:27:55;24.20;72.40
12039;DHT22;6080;48.818;9.526;2023-06-14T06:30:23;24.30;71.80
12039;DHT22;6080;48.818;9.526;2023-06-14T06:32:50;24.50;71.10
12039;DHT22;6080;48.818;9.526;2023-06-14T06:35:16;24.20;70.60
12039;DHT22;6080;48.818;9.526;2023-06-14T06:37:42;24.40;71.20
12039;DHT22;6080;48.818;9.526;2023-06-14T06:40:09;24.70;69.40
12039;DHT22;6080;48.818;9.526;2023-06-14T06:42:35;25.00;68.70
12039;DHT22;6080;48.818;9.526;2023-06-14T06:45:01;25.10;68.60
12039;DHT22;6080;48.818;9.526;2023-06-14T06:47:27;25.10;70.00
12039;DHT22;6080;48.818;9.526;2023-06-14T06:49:53;25.40;67.80
12039;DHT22;6080;48.818;9.526;2023-06-14T06:52:18;25.80;66.80
12039;DHT22;6080;48.818;9.526;2023-06-14T06:54:45;25.80;66.00
12039;DHT22;6080;48.818;9.526;2023-06-14T06:57:10;26.10;65.60
12039;DHT22;6080;48.818;9.526;2023-06-14T06:59:36;26.50;64.50
12039;DHT22;6080;48.818;9.526;2023-06-14T07:02:03;26.50;63.00
12039;DHT22;6080;48.818;9.526;2023-06-14T07:04:29;26.20;62.50
12039;DHT22;6080;48.818;9.526;2023-06-14T07:06:55;25.30;64.80
12039;DHT22;6080;48.818;9.526;2023-06-14T07:09:21;25.50;64.20
12039;DHT22;6080;48.818;9.526;2023-06-14T07:11:47;25.60;64.80
12039;DHT22;6080;48.818;9.526;2023-06-14T07:14:13;25.90;64.40
12039;DHT22;6080;48.818;9.526;2023-06-14T07:16:39;25.90;63.60
12039;DHT22;6080;48.818;9.526;2023-06-14T07:19:06;26.00;64.00
12039;DHT22;6080;48.818;9.526;2023-06-14T07:21:32;26.30;63.30
12039;DHT22;6080;48.818;9.526;2023-06-14T07:23:58;26.60;62.60
12039;DHT22;6080;48.818;9.526;2023-06-14T07:26:24;26.50;61.80
12039;DHT22;6080;48.818;9.526;2023-06-14T07:28:51;26.40;62.40
12039;DHT22;6080;48.818;9.526;2023-06-14T07:31:18;26.30;61.90
12039;DHT22;6080;48.818;9.526;2023-06-14T07:33:45;26.50;62.30
12039;DHT22;6080;48.818;9.526;2023-06-14T07:36:10;26.40;61.70
12039;DHT22;6080;48.818;9.526;2023-06-14T07:38:36;26.50;62.60
12039;DHT22;6080;48.818;9.526;2023-06-14T07:41:02;26.90;61.10
12039;DHT22;6080;48.818;9.526;2023-06-14T07:43:28;27.10;60.70
12039;DHT22;6080;48.818;9.526;2023-06-14T07:45:54;27.30;60.80
12039;DHT22;6080;48.818;9.526;2023-06-14T07:48:20;27.50;60.80
12039;DHT22;6080;48.818;9.526;2023-06-14T07:50:46;27.40;60.90
12039;DHT22;6080;48.818;9.526;2023-06-14T07:53:12;27.40;60.40
12039;DHT22;6080;48.818;9.526;2023-06-14T07:55:38;27.50;60.40
12039;DHT22;6080;48.818;9.526;2023-06-14T07:58:08;27.20;59.50
12039;DHT22;6080;48.818;9.526;2023-06-14T08:00:33;27.00;60.90
12039;DHT22;6080;48.818;9.526;2023-06-14T08:02:59;26.90;60.60
12039;DHT22;6080;48.818;9.526;2023-06-14T08:05:26;26.70;60.70
12039;DHT22;6080;48.818;9.526;2023-06-14T08:07:52;26.40;61.30
12039;DHT22;6080;48.818;9.526;2023-06-14T08:10:18;26.70;60.40
12039;DHT22;6080;48.818;9.526;2023-06-14T08:12:44;27.00;60.10
12039;DHT22;6080;48.818;9.526;2023-06-14T08:15:10;27.50;59.80
12039;DHT22;6080;48.818;9.526;2023-06-14T08:17:36;28.10;58.10
12039;DHT22;6080;48.818;9.526;2023-06-14T08:20:02;28.50;58.20
12039;DHT22;6080;48.818;9.526;2023-06-14T08:22:30;28.60;57.00
12039;DHT22;6080;48.818;9.526;2023-06-14T08:25:00;28.40;56.70
12039;DHT22;6080;48.818;9.526;2023-06-14T08:27:27;28.30;56.20
12039;DHT22;6080;48.818;9.526;2023-06-14T08:29:53;28.80;56.70
12039;DHT22;6080;48.818;9.526;2023-06-14T08:32:19;28.50;54.10
12039;DHT22;6080;48.818;9.526;2023-06-14T08:34:45;27.20;55.20
12039;DHT22;6080;48.818;9.526;2023-06-14T08:37:10;27.20;56.00
12039;DHT22;6080;48.818;9.526;2023-06-14T08:39:36;26.90;55.50
12039;DHT22;6080;48.818;9.526;2023-06-14T08:42:03;26.80;56.20
12039;DHT22;6080;48.818;9.526;2023-06-14T08:44:30;26.90;56.20
12039;DHT22;6080;48.818;9.526;2023-06-14T08:46:56;26.40;55.00
12039;DHT22;6080;48.818;9.526;2023-06-14T08:49:25;26.70;56.20
12039;DHT22;6080;48.818;9.526;2023-06-14T08:51:58;26.90;55.10
12039;DHT22;6080;48.818;9.526;2023-06-14T08:54:28;26.80;55.10
12039;DHT22;6080;48.818;9.526;2023-06-14T08:56:56;27.10;54.60
12039;DHT22;6080;48.818;9.526;2023-06-14T08:59:28;26.40;55.10
12039;DHT22;6080;48.818;9.526;2023-06-14T09:01:56;26.10;57.20
12039;DHT22;6080;48.818;9.526;2023-06-14T09:04:25;26.30;56.00
12039;DHT22;6080;48.818;9.526;2023-06-14T09:06:51;26.30;56.60
12039;DHT22;6080;48.818;9.526;2023-06-14T09:09:20;26.80;55.90
12039;DHT22;6080;48.818;9.526;2023-06-14T09:11:46;27.30;53.40
12039;DHT22;6080;48.818;9.526;2023-06-14T09:14:12;27.30;52.80
12039;DHT22;6080;48.818;9.526;2023-06-14T09:16:38;26.90;54.10
12039;DHT22;6080;48.818;9.526;2023-06-14T09:19:03;26.10;56.60
12039;DHT22;6080;48.818;9.526;2023-06-14T09:21:34;26.30;55.70
12039;DHT22;6080;48.818;9.526;2023-06-14T09:24:01;27.00;55.00
12039;DHT22;6080;48.818;9.526;2023-06-14T09:26:28;27.70;53.80
12039;DHT22;6080;48.818;9.526;2023-06-14T09:28:53;28.20;53.00
12039;DHT22;6080;48.818;9.526;2023-06-14T09:31:21;28.50;50.70
12039;DHT22;6080;48.818;9.526;2023-06-14T09:33:51;29.10;52.00
12039;DHT22;6080;48.818;9.526;2023-06-14T09:36:18;29.30;51.10
12039;DHT22;6080;48.818;9.526;2023-06-14T09:41:19;29.60;48.10
12039;DHT22;6080;48.818;9.526;2023-06-14T09:43:46;30.50;47.90
12039;DHT22;6080;48.818;9.526;2023-06-14T09:46:13;31.00;47.90
12039;DHT22;6080;48.818;9.526;2023-06-14T09:48:39;30.20;48.20
12039;DHT22;6080;48.818;9.526;2023-06-14T09:51:10;30.20;46.80
12039;DHT22;6080;48.818;9.526;2023-06-14T09:53:39;29.90;47.80
12039;DHT22;6080;48.818;9.526;2023-06-14T09:56:07;30.20;48.50
12039;DHT22;6080;48.818;9.526;2023-06-14T09:58:35;30.30;47.20
12039;DHT22;6080;48.818;9.526;2023-06-14T10:01:02;29.50;47.60
12039;DHT22;6080;48.818;9.526;2023-06-14T10:03:31;28.00;48.80
12039;DHT22;6080;48.818;9.526;2023-06-14T10:06:00;27.10;50.30
12039;DHT22;6080;48.818;9.526;2023-06-14T10:08:30;26.40;51.70
12039;DHT22;6080;48.818;9.526;2023-06-14T10:10:58;26.20;50.90
12039;DHT22;6080;48.818;9.526;2023-06-14T10:13:26;27.70;50.20
12039;DHT22;6080;48.818;9.526;2023-06-14T10:16:12;29.40;47.90
12039;DHT22;6080;48.818;9.526;2023-06-14T10:18:53;30.60;47.10
12039;DHT22;6080;48.818;9.526;2023-06-14T10:21:32;30.00;46.30
12039;DHT22;6080;48.818;9.526;2023-06-14T10:24:01;29.40;47.20
12039;DHT22;6080;48.818;9.526;2023-06-14T10:26:29;28.60;47.90
12039;DHT22;6080;48.818;9.526;2023-06-14T10:29:08;27.70;50.50
12039;DHT22;6080;48.818;9.526;2023-06-14T10:34:08;27.30;51.00
12039;DHT22;6080;48.818;9.526;2023-06-14T10:36:34;26.90;52.30
12039;DHT22;6080;48.818;9.526;2023-06-14T10:39:18;26.80;53.10
12039;DHT22;6080;48.818;9.526;2023-06-14T10:41:56;26.40;52.70
12039;DHT22;6080;48.818;9.526;2023-06-14T10:46:53;26.80;52.60
12039;DHT22;6080;48.818;9.526;2023-06-14T10:49:19;28.10;50.70
12039;DHT22;6080;48.818;9.526;2023-06-14T10:51:50;29.30;49.80
12039;DHT22;6080;48.818;9.526;2023-06-14T10:54:16;30.10;46.80
12039;DHT22;6080;48.818;9.526;2023-06-14T10:56:50;29.80;46.90
12039;DHT22;6080;48.818;9.526;2023-06-14T10:59:17;30.00;46.90
12039;DHT22;6080;48.818;9.526;2023-06-14T11:04:48;32.00;44.90
12039;DHT22;6080;48.818;9.526;2023-06-14T11:10:37;32.00;45.50
12039;DHT22;6080;48.818;9.526;2023-06-14T11:13:04;32.90;43.30
12039;DHT22;6080;48.818;9.526;2023-06-14T11:15:34;33.00;42.90
12039;DHT22;6080;48.818;9.526;2023-06-14T11:18:02;31.70;43.30
12039;DHT22;6080;48.818;9.526;2023-06-14T11:20:30;29.80;45.80
12039;DHT22;6080;48.818;9.526;2023-06-14T11:22:56;28.60;47.80
12039;DHT22;6080;48.818;9.526;2023-06-14T11:25:22;28.20;48.80
12039;DHT22;6080;48.818;9.526;2023-06-14T11:27:50;29.00;47.80
12039;DHT22;6080;48.818;9.526;2023-06-14T11:30:16;29.80;46.90
12039;DHT22;6080;48.818;9.526;2023-06-14T11:32:42;31.00;45.50
12039;DHT22;6080;48.818;9.526;2023-06-14T11:35:11;31.60;44.00
12039;DHT22;6080;48.818;9.526;2023-06-14T11:37:39;32.20;42.60
12039;DHT22;6080;48.818;9.526;2023-06-14T11:40:08;33.30;42.10
12039;DHT22;6080;48.818;9.526;2023-06-14T11:42:39;33.70;41.90
12039;DHT22;6080;48.818;9.526;2023-06-14T11:45:10;34.00;39.90
12039;DHT22;6080;48.818;9.526;2023-06-14T11:47:38;33.80;39.60
12039;DHT22;6080;48.818;9.526;2023-06-14T11:50:05;34.00;39.90
12039;DHT22;6080;48.818;9.526;2023-06-14T11:52:32;32.90;41.10
12039;DHT22;6080;48.818;9.526;2023-06-14T11:54:58;32.20;41.70
12039;DHT22;6080;48.818;9.526;2023-06-14T11:57:25;31.50;42.60
12039;DHT22;6080;48.818;9.526;2023-06-14T11:59:51;31.20;42.50
12039;DHT22;6080;48.818;9.526;2023-06-14T12:02:19;30.80;43.20
12039;DHT22;6080;48.818;9.526;2023-06-14T12:04:48;31.40;43.30
12039;DHT22;6080;48.818;9.526;2023-06-14T12:07:16;31.60;42.50
12039;DHT22;6080;48.818;9.526;2023-06-14T12:12:35;32.50;41.70
12039;DHT22;6080;48.818;9.526;2023-06-14T12:15:03;32.50;41.60
12039;DHT22;6080;48.818;9.526;2023-06-14T12:17:34;32.40;42.50
12039;DHT22;6080;48.818;9.526;2023-06-14T12:20:06;32.20;41.60
12039;DHT22;6080;48.818;9.526;2023-06-14T12:22:37;32.10;42.10
12039;DHT22;6080;48.818;9.526;2023-06-14T12:25:04;32.70;40.90
12039;DHT22;6080;48.818;9.526;2023-06-14T12:27:30;33.20;40.90
12039;DHT22;6080;48.818;9.526;2023-06-14T12:30:03;34.00;40.50
12039;DHT22;6080;48.818;9.526;2023-06-14T12:32:29;33.10;40.50
12039;DHT22;6080;48.818;9.526;2023-06-14T12:34:55;32.70;40.70
12039;DHT22;6080;48.818;9.526;2023-06-14T12:37:21;32.70;40.80
12039;DHT22;6080;48.818;9.526;2023-06-14T12:39:47;32.50;41.80
12039;DHT22;6080;48.818;9.526;2023-06-14T12:42:13;31.80;41.20
12039;DHT22;6080;48.818;9.526;2023-06-14T12:44:40;31.50;42.50
12039;DHT22;6080;48.818;9.526;2023-06-14T12:47:09;32.10;41.70
12039;DHT22;6080;48.818;9.526;2023-06-14T12:49:35;32.90;41.20
12039;DHT22;6080;48.818;9.526;2023-06-14T12:52:01;34.00;39.90
12039;DHT22;6080;48.818;9.526;2023-06-14T12:54:26;34.80;38.90
12039;DHT22;6080;48.818;9.526;2023-06-14T12:56:52;35.50;38.50
12039;DHT22;6080;48.818;9.526;2023-06-14T12:59:18;35.50;37.20
12039;DHT22;6080;48.818;9.526;2023-06-14T13:01:44;35.00;37.20
12039;DHT22;6080;48.818;9.526;2023-06-14T13:04:10;35.90;36.90
12039;DHT22;6080;48.818;9.526;2023-06-14T13:06:36;36.20;36.20
12039;DHT22;6080;48.818;9.526;2023-06-14T13:09:02;36.30;36.20
12039;DHT22;6080;48.818;9.526;2023-06-14T13:11:29;36.80;36.30
12039;DHT22;6080;48.818;9.526;2023-06-14T13:13:55;36.80;35.80
12039;DHT22;6080;48.818;9.526;2023-06-14T13:16:21;36.30;36.30
12039;DHT22;6080;48.818;9.526;2023-06-14T13:18:47;35.90;36.40
12039;DHT22;6080;48.818;9.526;2023-06-14T13:21:13;35.90;36.80
12039;DHT22;6080;48.818;9.526;2023-06-14T13:23:39;35.90;37.30
12039;DHT22;6080;48.818;9.526;2023-06-14T13:26:05;36.30;35.90
12039;DHT22;6080;48.818;9.526;2023-06-14T13:28:30;35.90;36.40
12039;DHT22;6080;48.818;9.526;2023-06-14T13:30:57;35.70;36.60
12039;DHT22;6080;48.818;9.526;2023-06-14T13:33:23;34.20;37.10
12039;DHT22;6080;48.818;9.526;2023-06-14T13:35:49;32.80;39.00
12039;DHT22;6080;48.818;9.526;2023-06-14T13:38:18;32.40;39.40
12039;DHT22;6080;48.818;9.526;2023-06-14T13:40:44;33.20;39.10
12039;DHT22;6080;48.818;9.526;2023-06-14T13:43:10;34.50;37.80
12039;DHT22;6080;48.818;9.526;2023-06-14T13:45:36;34.90;37.20
12039;DHT22;6080;48.818;9.526;2023-06-14T13:48:01;35.70;36.60
12039;DHT22;6080;48.818;9.526;2023-06-14T13:50:27;35.80;36.40
12039;DHT22;6080;48.818;9.526;2023-06-14T13:52:53;35.00;37.20
12039;DHT22;6080;48.818;9.526;2023-06-14T13:55:19;34.20;37.50
12039;DHT22;6080;48.818;9.526;2023-06-14T13:57:45;33.50;37.70
12039;DHT22;6080;48.818;9.526;2023-06-14T14:00:11;33.70;38.60
12039;DHT22;6080;48.818;9.526;2023-06-14T14:02:37;34.20;36.90
12039;DHT22;6080;48.818;9.526;2023-06-14T14:05:03;34.30;36.70
12039;DHT22;6080;48.818;9.526;2023-06-14T14:07:29;33.60;37.60
12039;DHT22;6080;48.818;9.526;2023-06-14T14:09:55;32.30;39.00
12039;DHT22;6080;48.818;9.526;2023-06-14T14:12:23;30.90;40.30
12039;DHT22;6080;48.818;9.526;2023-06-14T14:14:49;30.00;41.30
12039;DHT22;6080;48.818;9.526;2023-06-14T14:17:15;29.40;43.10
12039;DHT22;6080;48.818;9.526;2023-06-14T14:19:41;29.00;44.10
12039;DHT22;6080;48.818;9.526;2023-06-14T14:22:07;28.70;44.50
12039;DHT22;6080;48.818;9.526;2023-06-14T14:24:33;28.20;44.80
12039;DHT22;6080;48.818;9.526;2023-06-14T14:26:59;27.90;45.20
12039;DHT22;6080;48.818;9.526;2023-06-14T14:29:25;27.70;45.60
12039;DHT22;6080;48.818;9.526;2023-06-14T14:31:55;27.70;45.00
12039;DHT22;6080;48.818;9.526;2023-06-14T14:34:22;27.70;45.80
12039;DHT22;6080;48.818;9.526;2023-06-14T14:36:48;27.90;45.00
12039;DHT22;6080;48.818;9.526;2023-06-14T14:39:14;28.30;45.90
12039;DHT22;6080;48.818;9.526;2023-06-14T14:41:40;28.60;45.10
12039;DHT22;6080;48.818;9.526;2023-06-14T14:44:06;28.90;45.00
12039;DHT22;6080;48.818;9.526;2023-06-14T14:46:32;29.20;44.40
12039;DHT22;6080;48.818;9.526;2023-06-14T14:48:59;30.50;43.00
12039;DHT22;6080;48.818;9.526;2023-06-14T14:51:25;31.20;42.20
12039;DHT22;6080;48.818;9.526;2023-06-14T14:53:51;32.40;40.80
12039;DHT22;6080;48.818;9.526;2023-06-14T14:56:17;33.90;39.30
12039;DHT22;6080;48.818;9.526;2023-06-14T14:58:42;35.00;38.00
12039;DHT22;6080;48.818;9.526;2023-06-14T15:01:09;35.60;36.90
12039;DHT22;6080;48.818;9.526;2023-06-14T15:03:36;36.10;36.40
12039;DHT22;6080;48.818;9.526;2023-06-14T15:06:01;36.50;35.70
12039;DHT22;6080;48.818;9.526;2023-06-14T15:08:27;35.90;35.90
12039;DHT22;6080;48.818;9.526;2023-06-14T15:10:53;35.30;35.40
12039;DHT22;6080;48.818;9.526;2023-06-14T15:13:18;34.90;36.30
12039;DHT22;6080;48.818;9.526;2023-06-14T15:15:45;34.70;36.10
12039;DHT22;6080;48.818;9.526;2023-06-14T15:18:11;34.40;36.20
12039;DHT22;6080;48.818;9.526;2023-06-14T15:20:37;34.60;36.70
12039;DHT22;6080;48.818;9.526;2023-06-14T15:23:02;35.30;35.20
12039;DHT22;6080;48.818;9.526;2023-06-14T15:25:29;35.60;34.90
12039;DHT22;6080;48.818;9.526;2023-06-14T15:27:56;35.60;34.80
12039;DHT22;6080;48.818;9.526;2023-06-14T15:30:22;35.90;34.30
12039;DHT22;6080;48.818;9.526;2023-06-14T15:32:48;36.00;34.20
12039;DHT22;6080;48.818;9.526;2023-06-14T15:35:18;36.40;33.30
12039;DHT22;6080;48.818;9.526;2023-06-14T15:37:44;36.70;33.30
12039;DHT22;6080;48.818;9.526;2023-06-14T15:40:10;36.70;33.50
12039;DHT22;6080;48.818;9.526;2023-06-14T15:42:36;36.30;33.20
12039;DHT22;6080;48.818;9.526;2023-06-14T15:45:02;36.40;33.10
12039;DHT22;6080;48.818;9.526;2023-06-14T15:47:28;36.90;33.40
12039;DHT22;6080;48.818;9.526;2023-06-14T15:49:54;36.60;33.50
12039;DHT22;6080;48.818;9.526;2023-06-14T15:52:20;36.30;33.60
12039;DHT22;6080;48.818;9.526;2023-06-14T15:54:45;36.00;34.00
12039;DHT22;6080;48.818;9.526;2023-06-14T15:57:11;34.60;34.20
12039;DHT22;6080;48.818;9.526;2023-06-14T15:59:37;31.50;38.00
12039;DHT22;6080;48.818;9.526;2023-06-14T16:02:03;29.70;40.80
12039;DHT22;6080;48.818;9.526;2023-06-14T16:04:29;28.60;42.30
12039;DHT22;6080;48.818;9.526;2023-06-14T16:06:54;27.70;43.90
12039;DHT22;6080;48.818;9.526;2023-06-14T16:09:21;27.50;44.30
12039;DHT22;6080;48.818;9.526;2023-06-14T16:11:47;27.90;43.50
12039;DHT22;6080;48.818;9.526;2023-06-14T16:14:13;28.40;43.00
12039;DHT22;6080;48.818;9.526;2023-06-14T16:16:39;28.80;43.10
12039;DHT22;6080;48.818;9.526;2023-06-14T16:19:05;28.50;42.30
12039;DHT22;6080;48.818;9.526;2023-06-14T16:21:31;28.30;43.00
12039;DHT22;6080;48.818;9.526;2023-06-14T16:24:00;28.00;44.00
12039;DHT22;6080;48.818;9.526;2023-06-14T16:26:26;28.00;43.50
12039;DHT22;6080;48.818;9.526;2023-06-14T16:28:52;27.80;44.30
12039;DHT22;6080;48.818;9.526;2023-06-14T16:31:18;27.40;44.80
12039;DHT22;6080;48.818;9.526;2023-06-14T16:33:45;27.30;46.20
12039;DHT22;6080;48.818;9.526;2023-06-14T16:36:12;26.90;46.50
12039;DHT22;6080;48.818;9.526;2023-06-14T16:38:38;26.80;47.00
12039;DHT22;6080;48.818;9.526;2023-06-14T16:41:04;26.70;48.20
12039;DHT22;6080;48.818;9.526;2023-06-14T16:43:30;26.80;47.40
12039;DHT22;6080;48.818;9.526;2023-06-14T16:45:56;26.80;47.50
12039;DHT22;6080;48.818;9.526;2023-06-14T16:48:21;26.60;47.60
12039;DHT22;6080;48.818;9.526;2023-06-14T16:50:47;26.40;47.40
12039;DHT22;6080;48.818;9.526;2023-06-14T16:53:13;26.10;48.00
12039;DHT22;6080;48.818;9.526;2023-06-14T16:55:39;26.00;48.20
12039;DHT22;6080;48.818;9.526;2023-06-14T16:58:04;25.90;47.90
12039;DHT22;6080;48.818;9.526;2023-06-14T17:00:30;25.70;48.00
12039;DHT22;6080;48.818;9.526;2023-06-14T17:02:56;25.60;48.50
12039;DHT22;6080;48.818;9.526;2023-06-14T17:05:22;25.60;48.40
12039;DHT22;6080;48.818;9.526;2023-06-14T17:07:48;25.30;48.70
12039;DHT22;6080;48.818;9.526;2023-06-14T17:10:14;25.10;49.00
12039;DHT22;6080;48.818;9.526;2023-06-14T17:12:40;25.00;49.50
12039;DHT22;6080;48.818;9.526;2023-06-14T17:15:07;24.90;49.60
12039;DHT22;6080;48.818;9.526;2023-06-14T17:17:32;24.90;49.90
12039;DHT22;6080;48.818;9.526;2023-06-14T17:19:58;24.90;50.10
12039;DHT22;6080;48.818;9.526;2023-06-14T17:22:24;24.90;50.40
12039;DHT22;6080;48.818;9.526;2023-06-14T17:24:50;24.80;50.40
12039;DHT22;6080;48.818;9.526;2023-06-14T17:27:16;24.70;51.30
12039;DHT22;6080;48.818;9.526;2023-06-14T17:29:42;24.70;50.90
12039;DHT22;6080;48.818;9.526;2023-06-14T17:32:08;24.70;51.50
12039;DHT22;6080;48.818;9.526;2023-06-14T17:34:34;24.80;51.30
12039;DHT22;6080;48.818;9.526;2023-06-14T17:37:00;24.70;51.40
12039;DHT22;6080;48.818;9.526;2023-06-14T17:39:26;24.40;51.80
12039;DHT22;6080;48.818;9.526;2023-06-14T17:41:51;24.30;52.40
12039;DHT22;6080;48.818;9.526;2023-06-14T17:44:17;24.20;52.70
12039;DHT22;6080;48.818;9.526;2023-06-14T17:46:43;24.10;52.90
12039;DHT22;6080;48.818;9.526;2023-06-14T17:49:10;23.90;53.00
12039;DHT22;6080;48.818;9.526;2023-06-14T17:51:36;23.80;53.10
12039;DHT22;6080;48.818;9.526;2023-06-14T17:54:02;23.70;53.60
12039;DHT22;6080;48.818;9.526;2023-06-14T17:56:27;23.50;54.00
12039;DHT22;6080;48.818;9.526;2023-06-14T17:58:53;23.40;54.30
12039;DHT22;6080;48.818;9.526;2023-06-14T18:01:23;23.50;54.60
12039;DHT22;6080;48.818;9.526;2023-06-14T18:03:49;23.80;54.00
12039;DHT22;6080;48.818;9.526;2023-06-14T18:06:15;24.20;53.40
12039;DHT22;6080;48.818;9.526;2023-06-14T18:08:41;24.50;53.00
12039;DHT22;6080;48.818;9.526;2023-06-14T18:11:09;24.60;52.60
12039;DHT22;6080;48.818;9.526;2023-06-14T18:13:35;24.70;52.50
12039;DHT22;6080;48.818;9.526;2023-06-14T18:16:01;24.60;52.50
12039;DHT22;6080;48.818;9.526;2023-06-14T18:18:26;24.70;52.50
12039;DHT22;6080;48.818;9.526;2023-06-14T18:20:52;24.50;53.10
12039;DHT22;6080;48.818;9.526;2023-06-14T18:23:18;24.30;53.50
12039;DHT22;6080;48.818;9.526;2023-06-14T18:25:44;24.30;53.50
12039;DHT22;6080;48.818;9.526;2023-06-14T18:28:10;24.30;53.60
12039;DHT22;6080;48.818;9.526;2023-06-14T18:30:36;24.10;53.80
12039;DHT22;6080;48.818;9.526;2023-06-14T18:33:02;24.00;54.00
12039;DHT22;6080;48.818;9.526;2023-06-14T18:35:27;23.90;54.20
12039;DHT22;6080;48.818;9.526;2023-06-14T18:37:54;23.80;54.30
12039;DHT22;6080;48.818;9.526;2023-06-14T18:40:20;23.60;54.80
12039;DHT22;6080;48.818;9.526;2023-06-14T18:42:47;23.40;55.10
12039;DHT22;6080;48.818;9.526;2023-06-14T18:45:13;23.20;55.30
12039;DHT22;6080;48.818;9.526;2023-06-14T18:47:40;23.00;55.90
12039;DHT22;6080;48.818;9.526;2023-06-14T18:50:06;23.00;56.60
12039;DHT22;6080;48.818;9.526;2023-06-14T18:52:32;22.90;56.60
12039;DHT22;6080;48.818;9.526;2023-06-14T18:54:58;22.70;57.00
12039;DHT22;6080;48.818;9.526;2023-06-14T18:57:23;22.60;57.20
12039;DHT22;6080;48.818;9.526;2023-06-14T18:59:50;22.50;58.20